sensor_id;sensor_type;location;lat;lon;timestamp;P1;durP1;ratioP1;P2;durP2;ratioP2
5878;SDS011;2965;42.640;23.370;2023-12-29T04:01:11;27.83;;;15.80;;
5878;SDS011;2965;42.640;23.370;2023-12-29T04:03:37;26.33;;;15.33;;
5878;SDS011;2965;42.640;23.370;2023-12-29T04:06:03;26.27;;;15.17;;
5878;SDS011;2965;42.640;23.370;2023-12-29T04:08:29;24.40;;;14.07;;
5878;SDS011;2965;42.640;23.370;2023-12-29T04:10:54;32.53;;;15.90;;
5878;SDS011;2965;42.640;23.370;2023-12-29T04:13:21;26.50;;;14.07;;
5878;SDS011;2965;42.640;23.370;2023-12-29T04:15:46;24.73;;;14.10;;
5878;SDS011;2965;42.640;23.370;2023-12-29T04:18:12;30.23;;;15.67;;
5878;SDS011;2965;42.640;23.370;2023-12-29T04:20:37;22.27;;;13.70;;
5878;SDS011;2965;42.640;23.370;2023-12-29T04:23:03;25.07;;;13.70;;
5878;SDS011;2965;42.640;23.370;2023-12-29T04:25:30;24.73;;;13.77;;
5878;SDS011;2965;42.640;23.370;2023-12-29T04:27:56;22.17;;;11.03;;
5878;SDS011;2965;42.640;23.370;2023-12-29T04:30:21;34.20;;;16.37;;
5878;SDS011;2965;42.640;23.370;2023-12-29T04:32:46;22.60;;;13.10;;
5878;SDS011;2965;42.640;23.370;2023-12-29T04:35:12;23.90;;;15.10;;
5878;SDS011;2965;42.640;23.370;2023-12-29T04:37:39;33.43;;;15.70;;
5878;SDS011;2965;42.640;23.370;2023-12-29T04:40:06;26.57;;;15.43;;
5878;SDS011;2965;42.640;23.370;2023-12-29T04:42:31;24.77;;;14.80;;
5878;SDS011;2965;42.640;23.370;2023-12-29T04:44:57;20.40;;;12.47;;
5878;SDS011;2965;42.640;23.370;2023-12-29T04:47:22;28.00;;;15.60;;
5878;SDS011;2965;42.640;23.370;2023-12-29T04:49:48;38.73;;;20.10;;
5878;SDS011;2965;42.640;23.370;2023-12-29T05:23:00;25.00;;;15.93;;
5878;SDS011;2965;42.640;23.370;2023-12-29T05:25:26;22.50;;;14.80;;
5878;SDS011;2965;42.640;23.370;2023-12-29T05:27:51;25.40;;;14.90;;
5878;SDS011;2965;42.640;23.370;2023-12-29T05:30:17;21.93;;;13.37;;
5878;SDS011;2965;42.640;23.370;2023-12-29T05:32:42;27.47;;;15.10;;
5878;SDS011;2965;42.640;23.370;2023-12-29T05:35:08;24.77;;;12.77;;
5878;SDS011;2965;42.640;23.370;2023-12-29T05:37:33;21.77;;;13.17;;
5878;SDS011;2965;42.640;23.370;2023-12-29T05:39:59;23.13;;;11.77;;
5878;SDS011;2965;42.640;23.370;2023-12-29T05:42:24;22.97;;;11.80;;
5878;SDS011;2965;42.640;23.370;2023-12-29T05:44:50;20.17;;;13.43;;
5878;SDS011;2965;42.640;23.370;2023-12-29T05:47:18;31.23;;;17.13;;
5878;SDS011;2965;42.640;23.370;2023-12-29T05:49:43;27.93;;;16.27;;
5878;SDS011;2965;42.640;23.370;2023-12-29T05:52:09;28.17;;;15.73;;
5878;SDS011;2965;42.640;23.370;2023-12-29T05:54:35;27.57;;;14.60;;
5878;SDS011;2965;42.640;23.370;2023-12-29T05:57:00;36.60;;;16.47;;
5878;SDS011;2965;42.640;23.370;2023-12-29T05:59:26;35.37;;;18.57;;
5878;SDS011;2965;42.640;23.370;2023-12-29T06:01:51;41.50;;;23.20;;
5878;SDS011;2965;42.640;23.370;2023-12-29T06:04:17;50.30;;;26.90;;
5878;SDS011;2965;42.640;23.370;2023-12-29T06:06:42;56.80;;;26.10;;
5878;SDS011;2965;42.640;23.370;2023-12-29T06:09:10;38.80;;;21.80;;
5878;SDS011;2965;42.640;23.370;2023-12-29T06:11:36;43.57;;;20.23;;
5878;SDS011;2965;42.640;23.370;2023-12-29T06:14:02;26.43;;;16.40;;
5878;SDS011;2965;42.640;23.370;2023-12-29T06:16:28;30.67;;;18.07;;
5878;SDS011;2965;42.640;23.370;2023-12-29T06:18:55;31.33;;;15.80;;
5878;SDS011;2965;42.640;23.370;2023-12-29T06:21:20;27.80;;;16.07;;
5878;SDS011;2965;42.640;23.370;2023-12-29T06:23:46;30.57;;;17.20;;
5878;SDS011;2965;42.640;23.370;2023-12-29T06:26:18;41.77;;;19.90;;
5878;SDS011;2965;42.640;23.370;2023-12-29T06:28:45;35.70;;;18.50;;
5878;SDS011;2965;42.640;23.370;2023-12-29T06:31:12;31.60;;;18.57;;
5878;SDS011;2965;42.640;23.370;2023-12-29T06:33:41;29.53;;;16.10;;
5878;SDS011;2965;42.640;23.370;2023-12-29T06:36:08;36.20;;;18.20;;
5878;SDS011;2965;42.640;23.370;2023-12-29T06:38:34;34.23;;;18.13;;
5878;SDS011;2965;42.640;23.370;2023-12-29T06:41:02;33.60;;;17.73;;
5878;SDS011;2965;42.640;23.370;2023-12-29T06:43:32;29.03;;;15.87;;
5878;SDS011;2965;42.640;23.370;2023-12-29T06:45:57;33.50;;;18.10;;
5878;SDS011;2965;42.640;23.370;2023-12-29T06:48:23;31.63;;;17.53;;
5878;SDS011;2965;42.640;23.370;2023-12-29T06:50:48;33.20;;;17.77;;
5878;SDS011;2965;42.640;23.370;2023-12-29T06:53:14;34.77;;;17.30;;
5878;SDS011;2965;42.640;23.370;2023-12-29T06:55:39;33.77;;;18.67;;
5878;SDS011;2965;42.640;23.370;2023-12-29T06:58:05;28.47;;;16.73;;
5878;SDS011;2965;42.640;23.370;2023-12-29T07:00:30;31.97;;;18.50;;
5878;SDS011;2965;42.640;23.370;2023-12-29T07:02:56;29.33;;;17.77;;
5878;SDS011;2965;42.640;23.370;2023-12-29T07:05:21;31.63;;;15.83;;
5878;SDS011;2965;42.640;23.370;2023-12-29T07:07:47;30.43;;;17.70;;
5878;SDS011;2965;42.640;23.370;2023-12-29T07:10:12;31.37;;;17.77;;
5878;SDS011;2965;42.640;23.370;2023-12-29T07:12:40;28.47;;;16.50;;
5878;SDS011;2965;42.640;23.370;2023-12-29T07:15:06;26.57;;;17.00;;
5878;SDS011;2965;42.640;23.370;2023-12-29T07:17:31;31.97;;;18.33;;
5878;SDS011;2965;42.640;23.370;2023-12-29T07:19:57;34.23;;;19.10;;
5878;SDS011;2965;42.640;23.370;2023-12-29T07:22:23;43.17;;;21.67;;
5878;SDS011;2965;42.640;23.370;2023-12-29T07:24:48;41.63;;;21.70;;
5878;SDS011;2965;42.640;23.370;2023-12-29T07:27:13;44.73;;;21.23;;
5878;SDS011;2965;42.640;23.370;2023-12-29T07:29:39;33.67;;;18.87;;
5878;SDS011;2965;42.640;23.370;2023-12-29T07:32:04;37.90;;;19.80;;
5878;SDS011;2965;42.640;23.370;2023-12-29T07:34:30;42.53;;;20.63;;
5878;SDS011;2965;42.640;23.370;2023-12-29T07:36:56;42.47;;;21.80;;
5878;SDS011;2965;42.640;23.370;2023-12-29T07:39:23;36.83;;;20.67;;
5878;SDS011;2965;42.640;23.370;2023-12-29T07:41:49;40.20;;;21.43;;
5878;SDS011;2965;42.640;23.370;2023-12-29T07:44:16;36.27;;;20.37;;
5878;SDS011;2965;42.640;23.370;2023-12-29T07:46:42;44.50;;;22.87;;
5878;SDS011;2965;42.640;23.370;2023-12-29T07:49:08;41.90;;;22.10;;
5878;SDS011;2965;42.640;23.370;2023-12-29T07:51:33;43.10;;;24.07;;
5878;SDS011;2965;42.640;23.370;2023-12-29T07:53:59;43.47;;;23.97;;
5878;SDS011;2965;42.640;23.370;2023-12-29T07:56:24;41.60;;;23.90;;
5878;SDS011;2965;42.640;23.370;2023-12-29T07:58:50;42.13;;;24.80;;
5878;SDS011;2965;42.640;23.370;2023-12-29T08:01:15;54.53;;;24.57;;
5878;SDS011;2965;42.640;23.370;2023-12-29T08:03:41;47.73;;;24.63;;
5878;SDS011;2965;42.640;23.370;2023-12-29T08:06:06;51.67;;;25.90;;
5878;SDS011;2965;42.640;23.370;2023-12-29T08:08:32;48.40;;;24.93;;
5878;SDS011;2965;42.640;23.370;2023-12-29T08:10:57;50.70;;;27.60;;
5878;SDS011;2965;42.640;23.370;2023-12-29T08:13:23;49.30;;;25.20;;
5878;SDS011;2965;42.640;23.370;2023-12-29T08:15:48;52.33;;;26.47;;
5878;SDS011;2965;42.640;23.370;2023-12-29T08:18:14;52.20;;;27.10;;
5878;SDS011;2965;42.640;23.370;2023-12-29T08:20:40;47.50;;;25.70;;
5878;SDS011;2965;42.640;23.370;2023-12-29T08:23:05;53.27;;;28.43;;
5878;SDS011;2965;42.640;23.370;2023-12-29T08:25:30;51.83;;;27.23;;
5878;SDS011;2965;42.640;23.370;2023-12-29T08:27:56;54.77;;;26.57;;
5878;SDS011;2965;42.640;23.370;2023-12-29T08:30:21;51.00;;;27.37;;
5878;SDS011;2965;42.640;23.370;2023-12-29T08:32:47;52.70;;;28.83;;
5878;SDS011;2965;42.640;23.370;2023-12-29T08:35:12;76.00;;;37.80;;
5878;SDS011;2965;42.640;23.370;2023-12-29T08:37:38;83.13;;;42.67;;
5878;SDS011;2965;42.640;23.370;2023-12-29T08:40:03;87.57;;;45.80;;
5878;SDS011;2965;42.640;23.370;2023-12-29T08:42:30;104.70;;;52.10;;
5878;SDS011;2965;42.640;23.370;2023-12-29T08:44:55;102.67;;;52.07;;
5878;SDS011;2965;42.640;23.370;2023-12-29T08:47:21;104.60;;;54.20;;
5878;SDS011;2965;42.640;23.370;2023-12-29T08:49:46;102.70;;;53.33;;
5878;SDS011;2965;42.640;23.370;2023-12-29T08:52:14;102.90;;;49.90;;
5878;SDS011;2965;42.640;23.370;2023-12-29T08:54:39;90.77;;;42.97;;
5878;SDS011;2965;42.640;23.370;2023-12-29T08:57:05;71.50;;;36.40;;
5878;SDS011;2965;42.640;23.370;2023-12-29T08:59:31;79.00;;;39.97;;
5878;SDS011;2965;42.640;23.370;2023-12-29T09:01:57;75.60;;;40.57;;
5878;SDS011;2965;42.640;23.370;2023-12-29T09:04:23;88.30;;;41.67;;
5878;SDS011;2965;42.640;23.370;2023-12-29T09:06:48;82.47;;;40.10;;
5878;SDS011;2965;42.640;23.370;2023-12-29T09:09:14;68.63;;;38.33;;
5878;SDS011;2965;42.640;23.370;2023-12-29T09:11:39;68.07;;;38.60;;
5878;SDS011;2965;42.640;23.370;2023-12-29T09:14:06;71.67;;;38.97;;
5878;SDS011;2965;42.640;23.370;2023-12-29T09:16:32;72.13;;;38.33;;
5878;SDS011;2965;42.640;23.370;2023-12-29T09:18:57;70.53;;;38.97;;
5878;SDS011;2965;42.640;23.370;2023-12-29T09:21:22;65.73;;;37.30;;
5878;SDS011;2965;42.640;23.370;2023-12-29T09:23:48;72.90;;;37.97;;
5878;SDS011;2965;42.640;23.370;2023-12-29T09:26:13;69.47;;;35.87;;
5878;SDS011;2965;42.640;23.370;2023-12-29T09:28:41;61.07;;;35.07;;
5878;SDS011;2965;42.640;23.370;2023-12-29T09:31:09;71.80;;;35.20;;
5878;SDS011;2965;42.640;23.370;2023-12-29T09:33:35;59.93;;;34.53;;
5878;SDS011;2965;42.640;23.370;2023-12-29T09:36:01;58.90;;;31.70;;
5878;SDS011;2965;42.640;23.370;2023-12-29T09:38:28;63.23;;;33.73;;
5878;SDS011;2965;42.640;23.370;2023-12-29T09:40:53;66.37;;;31.37;;
5878;SDS011;2965;42.640;23.370;2023-12-29T09:43:25;55.03;;;31.50;;
5878;SDS011;2965;42.640;23.370;2023-12-29T09:45:50;56.50;;;30.83;;
5878;SDS011;2965;42.640;23.370;2023-12-29T09:48:17;61.40;;;31.40;;
5878;SDS011;2965;42.640;23.370;2023-12-29T09:50:45;52.87;;;30.07;;
5878;SDS011;2965;42.640;23.370;2023-12-29T09:53:11;67.53;;;34.57;;
5878;SDS011;2965;42.640;23.370;2023-12-29T09:55:38;61.93;;;34.70;;
5878;SDS011;2965;42.640;23.370;2023-12-29T09:58:05;70.70;;;34.27;;
5878;SDS011;2965;42.640;23.370;2023-12-29T10:00:33;63.60;;;35.77;;
5878;SDS011;2965;42.640;23.370;2023-12-29T10:03:00;54.83;;;33.10;;
5878;SDS011;2965;42.640;23.370;2023-12-29T10:05:25;62.00;;;34.50;;
5878;SDS011;2965;42.640;23.370;2023-12-29T10:07:51;55.80;;;34.37;;
5878;SDS011;2965;42.640;23.370;2023-12-29T10:10:18;62.13;;;33.00;;
5878;SDS011;2965;42.640;23.370;2023-12-29T10:12:47;58.10;;;31.53;;
5878;SDS011;2965;42.640;23.370;2023-12-29T10:15:56;52.10;;;29.67;;
5878;SDS011;2965;42.640;23.370;2023-12-29T10:18:32;52.70;;;29.97;;
5878;SDS011;2965;42.640;23.370;2023-12-29T10:23:56;57.30;;;32.60;;
5878;SDS011;2965;42.640;23.370;2023-12-29T10:26:32;57.80;;;32.40;;
5878;SDS011;2965;42.640;23.370;2023-12-29T10:28:57;70.90;;;35.97;;
5878;SDS011;2965;42.640;23.370;2023-12-29T10:31:24;55.20;;;33.00;;
5878;SDS011;2965;42.640;23.370;2023-12-29T10:33:50;54.07;;;32.60;;
5878;SDS011;2965;42.640;23.370;2023-12-29T10:36:16;49.37;;;28.70;;
5878;SDS011;2965;42.640;23.370;2023-12-29T10:38:42;55.03;;;29.97;;
5878;SDS011;2965;42.640;23.370;2023-12-29T10:41:11;46.03;;;27.67;;
5878;SDS011;2965;42.640;23.370;2023-12-29T10:43:39;47.63;;;28.83;;
5878;SDS011;2965;42.640;23.370;2023-12-29T10:46:09;55.43;;;27.73;;
5878;SDS011;2965;42.640;23.370;2023-12-29T10:48:35;53.27;;;29.40;;
5878;SDS011;2965;42.640;23.370;2023-12-29T10:51:02;47.80;;;29.40;;
5878;SDS011;2965;42.640;23.370;2023-12-29T10:53:31;56.73;;;28.53;;
5878;SDS011;2965;42.640;23.370;2023-12-29T10:55:58;52.13;;;27.53;;
5878;SDS011;2965;42.640;23.370;2023-12-29T10:58:24;46.17;;;28.97;;
5878;SDS011;2965;42.640;23.370;2023-12-29T11:00:53;50.03;;;29.40;;
5878;SDS011;2965;42.640;23.370;2023-12-29T11:03:19;70.00;;;28.00;;
5878;SDS011;2965;42.640;23.370;2023-12-29T11:05:45;50.70;;;27.30;;
5878;SDS011;2965;42.640;23.370;2023-12-29T11:08:17;50.20;;;28.97;;
5878;SDS011;2965;42.640;23.370;2023-12-29T11:10:44;55.93;;;30.90;;
5878;SDS011;2965;42.640;23.370;2023-12-29T11:13:13;70.03;;;29.60;;
5878;SDS011;2965;42.640;23.370;2023-12-29T11:15:44;52.20;;;30.00;;
5878;SDS011;2965;42.640;23.370;2023-12-29T11:18:17;56.57;;;31.40;;
5878;SDS011;2965;42.640;23.370;2023-12-29T11:20:43;61.23;;;32.27;;
5878;SDS011;2965;42.640;23.370;2023-12-29T11:23:10;68.23;;;36.43;;
5878;SDS011;2965;42.640;23.370;2023-12-29T11:25:39;65.10;;;34.27;;
5878;SDS011;2965;42.640;23.370;2023-12-29T11:28:06;65.17;;;34.27;;
5878;SDS011;2965;42.640;23.370;2023-12-29T11:30:35;68.73;;;35.87;;
5878;SDS011;2965;42.640;23.370;2023-12-29T11:33:03;67.57;;;33.80;;
5878;SDS011;2965;42.640;23.370;2023-12-29T11:35:32;73.03;;;35.47;;
5878;SDS011;2965;42.640;23.370;2023-12-29T11:40:52;69.13;;;34.77;;
5878;SDS011;2965;42.640;23.370;2023-12-29T11:43:34;72.57;;;37.60;;
5878;SDS011;2965;42.640;23.370;2023-12-29T11:46:00;69.37;;;36.50;;
5878;SDS011;2965;42.640;23.370;2023-12-29T11:54:04;68.10;;;35.47;;
5878;SDS011;2965;42.640;23.370;2023-12-29T11:56:30;70.60;;;37.37;;
5878;SDS011;2965;42.640;23.370;2023-12-29T11:59:22;70.13;;;35.43;;
5878;SDS011;2965;42.640;23.370;2023-12-29T12:01:50;61.40;;;35.20;;
5878;SDS011;2965;42.640;23.370;2023-12-29T12:10:38;62.67;;;32.40;;
5878;SDS011;2965;42.640;23.370;2023-12-29T12:12:44;59.93;;;33.47;;
5878;SDS011;2965;42.640;23.370;2023-12-29T12:15:43;57.27;;;36.27;;
5878;SDS011;2965;42.640;23.370;2023-12-29T12:18:07;52.40;;;33.50;;
5878;SDS011;2965;42.640;23.370;2023-12-29T12:20:36;54.33;;;32.03;;
5878;SDS011;2965;42.640;23.370;2023-12-29T12:23:02;57.20;;;31.93;;
5878;SDS011;2965;42.640;23.370;2023-12-29T12:25:35;54.20;;;30.97;;
5878;SDS011;2965;42.640;23.370;2023-12-29T12:28:08;44.53;;;27.70;;
5878;SDS011;2965;42.640;23.370;2023-12-29T12:30:34;57.23;;;28.13;;
5878;SDS011;2965;42.640;23.370;2023-12-29T12:33:01;42.03;;;24.57;;
5878;SDS011;2965;42.640;23.370;2023-12-29T12:35:28;35.87;;;21.70;;
5878;SDS011;2965;42.640;23.370;2023-12-29T12:40:35;45.50;;;23.63;;
5878;SDS011;2965;42.640;23.370;2023-12-29T12:43:01;44.37;;;25.10;;
5878;SDS011;2965;42.640;23.370;2023-12-29T12:45:28;47.53;;;25.93;;
5878;SDS011;2965;42.640;23.370;2023-12-29T12:48:09;40.00;;;24.53;;
5878;SDS011;2965;42.640;23.370;2023-12-29T12:50:42;57.63;;;25.07;;
5878;SDS011;2965;42.640;23.370;2023-12-29T12:53:12;53.43;;;25.33;;
5878;SDS011;2965;42.640;23.370;2023-12-29T12:55:44;41.20;;;23.10;;
5878;SDS011;2965;42.640;23.370;2023-12-29T12:58:12;62.90;;;28.40;;
5878;SDS011;2965;42.640;23.370;2023-12-29T13:00:39;47.57;;;25.20;;
5878;SDS011;2965;42.640;23.370;2023-12-29T13:03:06;46.43;;;24.33;;
5878;SDS011;2965;42.640;23.370;2023-12-29T13:05:32;43.80;;;24.60;;
5878;SDS011;2965;42.640;23.370;2023-12-29T13:07:58;43.23;;;22.97;;
5878;SDS011;2965;42.640;23.370;2023-12-29T13:10:23;48.97;;;24.40;;
5878;SDS011;2965;42.640;23.370;2023-12-29T13:12:52;42.93;;;24.00;;
5878;SDS011;2965;42.640;23.370;2023-12-29T13:15:19;42.57;;;23.50;;
5878;SDS011;2965;42.640;23.370;2023-12-29T13:17:51;39.20;;;21.20;;
5878;SDS011;2965;42.640;23.370;2023-12-29T13:20:20;37.07;;;20.63;;
5878;SDS011;2965;42.640;23.370;2023-12-29T13:22:49;37.87;;;20.90;;
5878;SDS011;2965;42.640;23.370;2023-12-29T13:25:19;39.30;;;19.40;;
5878;SDS011;2965;42.640;23.370;2023-12-29T13:27:46;37.73;;;20.17;;
5878;SDS011;2965;42.640;23.370;2023-12-29T13:30:13;31.60;;;18.60;;
5878;SDS011;2965;42.640;23.370;2023-12-29T13:32:39;30.43;;;17.10;;
5878;SDS011;2965;42.640;23.370;2023-12-29T13:35:11;29.93;;;16.60;;
5878;SDS011;2965;42.640;23.370;2023-12-29T13:37:50;21.93;;;13.50;;
5878;SDS011;2965;42.640;23.370;2023-12-29T13:43:13;23.33;;;13.73;;
5878;SDS011;2965;42.640;23.370;2023-12-29T13:45:42;21.90;;;13.50;;
5878;SDS011;2965;42.640;23.370;2023-12-29T13:48:08;21.40;;;13.33;;
5878;SDS011;2965;42.640;23.370;2023-12-29T13:50:35;27.70;;;13.17;;
5878;SDS011;2965;42.640;23.370;2023-12-29T13:53:00;24.13;;;13.00;;
5878;SDS011;2965;42.640;23.370;2023-12-29T13:55:26;20.00;;;12.17;;
5878;SDS011;2965;42.640;23.370;2023-12-29T13:57:52;16.00;;;11.40;;
5878;SDS011;2965;42.640;23.370;2023-12-29T14:00:22;16.73;;;10.27;;
5878;SDS011;2965;42.640;23.370;2023-12-29T14:02:57;24.27;;;11.20;;
5878;SDS011;2965;42.640;23.370;2023-12-29T14:05:28;20.20;;;13.80;;
5878;SDS011;2965;42.640;23.370;2023-12-29T14:08:00;40.23;;;16.27;;
5878;SDS011;2965;42.640;23.370;2023-12-29T14:10:29;30.03;;;16.23;;
5878;SDS011;2965;42.640;23.370;2023-12-29T14:13:02;22.53;;;14.37;;
5878;SDS011;2965;42.640;23.370;2023-12-29T14:15:39;23.90;;;12.03;;
5878;SDS011;2965;42.640;23.370;2023-12-29T14:18:14;29.93;;;15.07;;
5878;SDS011;2965;42.640;23.370;2023-12-29T14:20:41;34.30;;;15.10;;
5878;SDS011;2965;42.640;23.370;2023-12-29T14:23:07;37.00;;;16.07;;
5878;SDS011;2965;42.640;23.370;2023-12-29T14:25:36;25.03;;;13.57;;
5878;SDS011;2965;42.640;23.370;2023-12-29T14:28:16;27.80;;;13.20;;
5878;SDS011;2965;42.640;23.370;2023-12-29T14:30:43;33.00;;;16.90;;
5878;SDS011;2965;42.640;23.370;2023-12-29T14:33:09;37.00;;;14.57;;
5878;SDS011;2965;42.640;23.370;2023-12-29T14:35:35;25.97;;;14.50;;
5878;SDS011;2965;42.640;23.370;2023-12-29T14:38:00;34.20;;;15.47;;
5878;SDS011;2965;42.640;23.370;2023-12-29T14:40:26;26.40;;;15.30;;
5878;SDS011;2965;42.640;23.370;2023-12-29T14:42:52;31.07;;;15.97;;
5878;SDS011;2965;42.640;23.370;2023-12-29T14:45:17;25.33;;;14.83;;
5878;SDS011;2965;42.640;23.370;2023-12-29T14:47:42;37.13;;;14.80;;
5878;SDS011;2965;42.640;23.370;2023-12-29T14:50:10;28.30;;;15.30;;
5878;SDS011;2965;42.640;23.370;2023-12-29T14:52:36;34.23;;;14.77;;
5878;SDS011;2965;42.640;23.370;2023-12-29T14:55:02;26.63;;;12.90;;
5878;SDS011;2965;42.640;23.370;2023-12-29T14:57:28;24.97;;;13.10;;
5878;SDS011;2965;42.640;23.370;2023-12-29T14:59:53;27.57;;;13.87;;
5878;SDS011;2965;42.640;23.370;2023-12-29T15:02:19;27.17;;;14.60;;
5878;SDS011;2965;42.640;23.370;2023-12-29T15:04:44;31.97;;;15.73;;
5878;SDS011;2965;42.640;23.370;2023-12-29T15:07:10;23.07;;;14.27;;
5878;SDS011;2965;42.640;23.370;2023-12-29T15:09:35;26.00;;;14.27;;
5878;SDS011;2965;42.640;23.370;2023-12-29T15:12:01;19.43;;;12.63;;
5878;SDS011;2965;42.640;23.370;2023-12-29T15:14:27;30.83;;;12.60;;
5878;SDS011;2965;42.640;23.370;2023-12-29T15:16:52;18.80;;;12.00;;
5878;SDS011;2965;42.640;23.370;2023-12-29T15:19:18;25.70;;;14.00;;
5878;SDS011;2965;42.640;23.370;2023-12-29T15:21:44;24.43;;;15.10;;
5878;SDS011;2965;42.640;23.370;2023-12-29T15:24:09;34.30;;;15.00;;
5878;SDS011;2965;42.640;23.370;2023-12-29T15:26:35;29.90;;;13.10;;
5878;SDS011;2965;42.640;23.370;2023-12-29T15:29:00;31.97;;;13.50;;
5878;SDS011;2965;42.640;23.370;2023-12-29T15:31:26;21.70;;;12.83;;
5878;SDS011;2965;42.640;23.370;2023-12-29T15:33:51;19.83;;;12.70;;
5878;SDS011;2965;42.640;23.370;2023-12-29T15:36:20;29.87;;;16.63;;
5878;SDS011;2965;42.640;23.370;2023-12-29T15:38:47;25.53;;;15.77;;
5878;SDS011;2965;42.640;23.370;2023-12-29T15:41:13;34.33;;;14.83;;
5878;SDS011;2965;42.640;23.370;2023-12-29T15:43:39;24.63;;;15.23;;
5878;SDS011;2965;42.640;23.370;2023-12-29T15:46:12;30.70;;;16.40;;
5878;SDS011;2965;42.640;23.370;2023-12-29T15:48:38;33.33;;;15.23;;
5878;SDS011;2965;42.640;23.370;2023-12-29T15:51:06;23.80;;;13.70;;
5878;SDS011;2965;42.640;23.370;2023-12-29T15:53:31;21.50;;;13.63;;
5878;SDS011;2965;42.640;23.370;2023-12-29T15:55:57;26.57;;;14.33;;
5878;SDS011;2965;42.640;23.370;2023-12-29T15:58:24;33.13;;;15.37;;
5878;SDS011;2965;42.640;23.370;2023-12-29T16:00:49;25.73;;;14.47;;
5878;SDS011;2965;42.640;23.370;2023-12-29T16:03:15;29.37;;;14.97;;
5878;SDS011;2965;42.640;23.370;2023-12-29T16:05:40;28.40;;;14.13;;
5878;SDS011;2965;42.640;23.370;2023-12-29T16:08:06;27.43;;;13.77;;
5878;SDS011;2965;42.640;23.370;2023-12-29T16:10:31;34.67;;;15.93;;
5878;SDS011;2965;42.640;23.370;2023-12-29T16:12:57;37.30;;;14.40;;
5878;SDS011;2965;42.640;23.370;2023-12-29T16:15:22;29.50;;;14.17;;
5878;SDS011;2965;42.640;23.370;2023-12-29T16:17:48;46.73;;;14.37;;
5878;SDS011;2965;42.640;23.370;2023-12-29T16:20:13;27.67;;;14.40;;
5878;SDS011;2965;42.640;23.370;2023-12-29T16:22:39;31.43;;;14.33;;
5878;SDS011;2965;42.640;23.370;2023-12-29T16:25:04;29.27;;;15.37;;
5878;SDS011;2965;42.640;23.370;2023-12-29T16:27:30;28.93;;;15.40;;
5878;SDS011;2965;42.640;23.370;2023-12-29T16:29:56;35.90;;;15.77;;
5878;SDS011;2965;42.640;23.370;2023-12-29T16:32:22;33.33;;;15.87;;
5878;SDS011;2965;42.640;23.370;2023-12-29T16:34:51;30.73;;;15.40;;
5878;SDS011;2965;42.640;23.370;2023-12-29T16:37:16;31.13;;;15.80;;
5878;SDS011;2965;42.640;23.370;2023-12-29T16:39:42;28.23;;;15.53;;
5878;SDS011;2965;42.640;23.370;2023-12-29T16:42:07;26.73;;;13.50;;
5878;SDS011;2965;42.640;23.370;2023-12-29T16:44:32;30.97;;;14.53;;
5878;SDS011;2965;42.640;23.370;2023-12-29T16:46:58;21.83;;;13.37;;
5878;SDS011;2965;42.640;23.370;2023-12-29T16:49:23;34.17;;;14.30;;
5878;SDS011;2965;42.640;23.370;2023-12-29T16:51:49;37.33;;;15.50;;
5878;SDS011;2965;42.640;23.370;2023-12-29T16:54:14;23.97;;;14.50;;
5878;SDS011;2965;42.640;23.370;2023-12-29T16:56:40;30.80;;;15.23;;
5878;SDS011;2965;42.640;23.370;2023-12-29T16:59:05;35.80;;;14.13;;
5878;SDS011;2965;42.640;23.370;2023-12-29T17:01:31;28.43;;;13.53;;
5878;SDS011;2965;42.640;23.370;2023-12-29T17:03:56;23.50;;;13.60;;
5878;SDS011;2965;42.640;23.370;2023-12-29T17:06:22;24.20;;;13.27;;
5878;SDS011;2965;42.640;23.370;2023-12-29T17:08:49;37.60;;;14.33;;
5878;SDS011;2965;42.640;23.370;2023-12-29T17:11:14;26.37;;;13.70;;
5878;SDS011;2965;42.640;23.370;2023-12-29T17:13:39;31.63;;;14.43;;
5878;SDS011;2965;42.640;23.370;2023-12-29T17:16:05;22.53;;;13.33;;
5878;SDS011;2965;42.640;23.370;2023-12-29T17:18:31;23.60;;;13.60;;
5878;SDS011;2965;42.640;23.370;2023-12-29T17:20:56;24.87;;;14.23;;
5878;SDS011;2965;42.640;23.370;2023-12-29T17:23:22;27.37;;;14.00;;
5878;SDS011;2965;42.640;23.370;2023-12-29T17:25:48;27.70;;;14.60;;
5878;SDS011;2965;42.640;23.370;2023-12-29T17:28:15;23.40;;;13.80;;
5878;SDS011;2965;42.640;23.370;2023-12-29T17:30:41;22.47;;;12.93;;
5878;SDS011;2965;42.640;23.370;2023-12-29T17:33:06;41.03;;;14.90;;
5878;SDS011;2965;42.640;23.370;2023-12-29T17:35:32;26.60;;;14.17;;
5878;SDS011;2965;42.640;23.370;2023-12-29T17:37:57;31.53;;;13.80;;
5878;SDS011;2965;42.640;23.370;2023-12-29T17:40:22;25.07;;;13.60;;
5878;SDS011;2965;42.640;23.370;2023-12-29T17:42:48;22.80;;;13.70;;
5878;SDS011;2965;42.640;23.370;2023-12-29T17:45:13;23.60;;;13.13;;
5878;SDS011;2965;42.640;23.370;2023-12-29T17:47:39;24.70;;;12.83;;
5878;SDS011;2965;42.640;23.370;2023-12-29T17:50:05;44.87;;;22.80;;
5878;SDS011;2965;42.640;23.370;2023-12-29T17:52:31;38.67;;;18.10;;
5878;SDS011;2965;42.640;23.370;2023-12-29T17:54:57;32.50;;;15.30;;
5878;SDS011;2965;42.640;23.370;2023-12-29T17:57:22;21.83;;;14.00;;
5878;SDS011;2965;42.640;23.370;2023-12-29T18:33:24;31.47;;;17.30;;
5878;SDS011;2965;42.640;23.370;2023-12-29T18:35:50;33.50;;;17.10;;
5878;SDS011;2965;42.640;23.370;2023-12-29T18:38:15;27.50;;;16.20;;
5878;SDS011;2965;42.640;23.370;2023-12-29T18:40:41;31.27;;;14.20;;
5878;SDS011;2965;42.640;23.370;2023-12-29T18:43:06;29.97;;;17.20;;
5878;SDS011;2965;42.640;23.370;2023-12-29T18:45:32;32.10;;;17.03;;
5878;SDS011;2965;42.640;23.370;2023-12-29T18:47:57;35.27;;;18.07;;
5878;SDS011;2965;42.640;23.370;2023-12-29T18:50:24;27.40;;;17.40;;
5878;SDS011;2965;42.640;23.370;2023-12-29T18:52:49;35.93;;;18.13;;
5878;SDS011;2965;42.640;23.370;2023-12-29T18:55:15;37.57;;;19.87;;
5878;SDS011;2965;42.640;23.370;2023-12-29T18:57:41;29.07;;;17.30;;
5878;SDS011;2965;42.640;23.370;2023-12-29T19:00:06;41.47;;;18.40;;
5878;SDS011;2965;42.640;23.370;2023-12-29T19:02:32;44.30;;;23.27;;
5878;SDS011;2965;42.640;23.370;2023-12-29T19:04:58;34.73;;;18.27;;
5878;SDS011;2965;42.640;23.370;2023-12-29T19:07:24;46.53;;;18.20;;
5878;SDS011;2965;42.640;23.370;2023-12-29T19:09:50;29.60;;;17.27;;
5878;SDS011;2965;42.640;23.370;2023-12-29T19:12:16;43.33;;;15.83;;
5878;SDS011;2965;42.640;23.370;2023-12-29T19:14:41;36.87;;;17.53;;
5878;SDS011;2965;42.640;23.370;2023-12-29T19:17:07;29.70;;;15.33;;
5878;SDS011;2965;42.640;23.370;2023-12-29T19:19:34;26.47;;;15.40;;
5878;SDS011;2965;42.640;23.370;2023-12-29T19:21:59;28.17;;;15.60;;
5878;SDS011;2965;42.640;23.370;2023-12-29T19:24:25;31.60;;;15.67;;
5878;SDS011;2965;42.640;23.370;2023-12-29T19:26:51;38.37;;;16.37;;
5878;SDS011;2965;42.640;23.370;2023-12-29T19:29:16;35.80;;;18.33;;
5878;SDS011;2965;42.640;23.370;2023-12-29T19:31:45;33.90;;;16.90;;
5878;SDS011;2965;42.640;23.370;2023-12-29T19:34:11;44.00;;;17.93;;
5878;SDS011;2965;42.640;23.370;2023-12-29T19:36:37;34.50;;;19.43;;
5878;SDS011;2965;42.640;23.370;2023-12-29T19:39:03;34.77;;;19.00;;
5878;SDS011;2965;42.640;23.370;2023-12-29T19:41:33;36.47;;;20.37;;
5878;SDS011;2965;42.640;23.370;2023-12-29T19:44:00;34.90;;;18.67;;
5878;SDS011;2965;42.640;23.370;2023-12-29T19:46:25;35.70;;;16.80;;
5878;SDS011;2965;42.640;23.370;2023-12-29T19:48:50;39.53;;;16.73;;
5878;SDS011;2965;42.640;23.370;2023-12-29T19:51:18;42.60;;;17.13;;
5878;SDS011;2965;42.640;23.370;2023-12-29T19:53:47;27.80;;;17.00;;
5878;SDS011;2965;42.640;23.370;2023-12-29T19:56:21;39.30;;;17.90;;
5878;SDS011;2965;42.640;23.370;2023-12-29T19:58:50;23.70;;;14.13;;